createdAt,value
2022-12-31T08:18:44.274Z,76.75
2022-12-31T08:21:48.239Z,76.84
2022-12-31T08:24:35.856Z,76.19
2022-12-31T08:28:02.615Z,75.75
2022-12-31T08:33:29.043Z,75.29
2022-12-31T08:36:15.859Z,74.95
2022-12-31T08:39:31.617Z,74.31
2022-12-31T08:42:03.684Z,74.00
2022-12-31T08:45:21.986Z,72.88
2022-12-31T08:48:30.118Z,71.87
2022-12-31T08:50:58.510Z,71.26
2022-12-31T08:53:26.603Z,71.15
2022-12-31T08:56:07.719Z,70.23
2022-12-31T08:58:53.476Z,70.42
2022-12-31T09:01:27.961Z,69.73
2022-12-31T09:04:43.159Z,69.26
2022-12-31T09:07:12.067Z,69.06
2022-12-31T09:10:32.146Z,68.01
2022-12-31T09:13:59.325Z,67.11
2022-12-31T09:17:16.639Z,66.65
2022-12-31T09:19:43.975Z,66.11
2022-12-31T09:22:11.981Z,65.99
2022-12-31T09:24:39.749Z,65.41
2022-12-31T09:27:57.771Z,64.89
2022-12-31T09:30:32.483Z,65.15
2022-12-31T09:34:06.998Z,64.58
2022-12-31T09:36:50.614Z,65.12
2022-12-31T09:39:51.043Z,64.68
2022-12-31T09:43:44.379Z,64.91
2022-12-31T09:47:33.668Z,65.19
2022-12-31T09:51:21.684Z,64.13
2022-12-31T09:54:51.556Z,63.87
2022-12-31T09:58:07.590Z,64.29
2022-12-31T10:01:26.680Z,63.80
2022-12-31T10:05:26.555Z,63.83
2022-12-31T10:08:56.783Z,62.85
2022-12-31T10:12:34.773Z,63.47
2022-12-31T10:15:42.092Z,62.49
2022-12-31T10:19:08.145Z,62.41
2022-12-31T10:22:36.876Z,62.60
2022-12-31T10:26:06.036Z,61.89
2022-12-31T10:29:48.785Z,62.18
2022-12-31T10:32:32.054Z,62.24
2022-12-31T10:35:15.099Z,61.29
2022-12-31T10:38:29.757Z,61.58
2022-12-31T10:41:48.914Z,60.73
2022-12-31T10:44:53.731Z,60.22
2022-12-31T10:48:55.134Z,60.06
2022-12-31T10:51:57.551Z,60.15
2022-12-31T10:55:29.251Z,59.48
2022-12-31T10:58:50.259Z,58.51
2022-12-31T11:01:54.176Z,58.56
2022-12-31T11:05:10.561Z,57.37
2022-12-31T11:08:08.662Z,56.22
2022-12-31T11:11:33.523Z,55.59
2022-12-31T11:14:54.013Z,55.28
2022-12-31T11:18:14.889Z,55.45
2022-12-31T11:21:27.767Z,55.64
2022-12-31T11:24:45.202Z,55.86
2022-12-31T11:28:10.182Z,56.15
2022-12-31T11:31:23.836Z,56.15
2022-12-31T11:34:43.101Z,55.95
2022-12-31T11:37:54.585Z,55.97
2022-12-31T11:41:00.852Z,55.84
2022-12-31T11:43:55.604Z,55.90
2022-12-31T11:46:59.836Z,55.75
2022-12-31T11:50:09.168Z,55.84
2022-12-31T11:53:19.070Z,56.68
2022-12-31T11:56:24.710Z,56.26
2022-12-31T11:58:55.834Z,56.71
2022-12-31T12:02:01.705Z,55.94
2022-12-31T12:04:30.046Z,56.45
2022-12-31T12:06:57.847Z,56.13
2022-12-31T12:09:34.391Z,55.61
2022-12-31T12:12:06.275Z,56.53
2022-12-31T12:14:39.304Z,56.46
2022-12-31T12:17:22.009Z,56.80
2022-12-31T12:19:56.869Z,57.05
2022-12-31T12:22:29.596Z,56.60
2022-12-31T12:25:20.502Z,56.92
2022-12-31T12:27:48.337Z,56.63
2022-12-31T12:30:27.876Z,57.14
2022-12-31T12:33:04.790Z,56.91
2022-12-31T12:35:36.043Z,57.03
2022-12-31T12:38:14.334Z,57.69
2022-12-31T12:40:42.035Z,57.56
2022-12-31T12:43:30.385Z,57.43
2022-12-31T12:46:05.533Z,57.87
2022-12-31T12:48:44.674Z,57.64
2022-12-31T12:52:04.877Z,57.58
2022-12-31T12:55:00.659Z,58.22
2022-12-31T12:57:46.458Z,57.87
2022-12-31T13:00:45.220Z,57.78
2022-12-31T13:04:35.622Z,58.00
2022-12-31T13:07:45.615Z,57.38
2022-12-31T13:11:06.159Z,57.64
2022-12-31T13:14:28.844Z,57.43
2022-12-31T13:18:01.498Z,57.64
2022-12-31T13:21:26.364Z,57.49
2022-12-31T13:24:28.369Z,57.55
2022-12-31T13:27:27.598Z,57.64
2022-12-31T13:30:01.556Z,57.97
2022-12-31T13:33:00.283Z,57.51
2022-12-31T13:35:57.465Z,57.96
2022-12-31T13:38:54.284Z,58.19
2022-12-31T13:41:34.563Z,57.97
2022-12-31T13:44:41.854Z,57.90
2022-12-31T13:47:37.109Z,58.54
2022-12-31T13:50:22.953Z,58.37
2022-12-31T13:53:36.626Z,58.45
2022-12-31T13:56:24.047Z,58.16
2022-12-31T13:59:02.059Z,58.58
2022-12-31T14:01:48.168Z,59.14
2022-12-31T14:04:33.709Z,58.84
2022-12-31T14:07:36.623Z,58.86
2022-12-31T14:10:16.098Z,58.48
2022-12-31T14:13:36.400Z,58.76
2022-12-31T14:17:02.634Z,58.91
2022-12-31T14:20:00.369Z,58.64
2022-12-31T14:23:24.518Z,58.96
2022-12-31T14:26:37.359Z,59.36
2022-12-31T14:29:45.824Z,59.05
2022-12-31T14:33:16.417Z,59.05
2022-12-31T14:36:32.303Z,59.44
2022-12-31T14:40:00.483Z,59.07
2022-12-31T14:43:18.075Z,59.33
2022-12-31T14:46:39.647Z,59.56
2022-12-31T14:50:12.507Z,59.76
2022-12-31T14:53:04.098Z,59.79
2022-12-31T14:55:40.855Z,60.07
2022-12-31T14:58:32.417Z,59.76
2022-12-31T15:01:04.496Z,60.33
2022-12-31T15:03:31.615Z,60.60
2022-12-31T15:06:51.615Z,60.15
2022-12-31T15:10:34.138Z,60.94
2022-12-31T15:13:35.549Z,60.56
2022-12-31T15:16:38.700Z,60.54
2022-12-31T15:20:19.045Z,60.41
2022-12-31T15:22:52.253Z,60.76
2022-12-31T15:25:40.458Z,60.80
2022-12-31T15:28:40.683Z,60.76
2022-12-31T15:31:18.130Z,60.86
2022-12-31T15:34:23.779Z,60.67
2022-12-31T15:37:00.689Z,61.01
2022-12-31T15:39:41.862Z,60.84
2022-12-31T15:43:08.012Z,61.38
2022-12-31T15:45:41.126Z,61.42
2022-12-31T15:48:44.083Z,61.38
2022-12-31T15:51:30.585Z,61.69
2022-12-31T15:54:00.838Z,62.04
2022-12-31T15:56:45.218Z,62.26
2022-12-31T15:59:17.253Z,61.98
2022-12-31T16:01:46.782Z,62.71
2022-12-31T16:04:28.675Z,62.47
2022-12-31T16:07:01.982Z,62.67
2022-12-31T16:09:35.912Z,63.33
2022-12-31T16:12:19.170Z,63.31
2022-12-31T16:14:55.424Z,63.60
2022-12-31T16:17:36.896Z,63.15
2022-12-31T16:20:26.987Z,62.95
2022-12-31T16:22:57.582Z,63.45
2022-12-31T16:25:31.906Z,63.60
2022-12-31T16:28:01.652Z,63.72
2022-12-31T16:30:37.212Z,64.09
2022-12-31T16:33:12.356Z,64.19
2022-12-31T16:35:39.991Z,63.89
2022-12-31T16:38:18.768Z,64.10
2022-12-31T16:41:19.807Z,64.67
2022-12-31T16:43:50.230Z,64.34
2022-12-31T16:46:31.223Z,64.83
2022-12-31T16:49:19.882Z,64.47
2022-12-31T16:51:47.704Z,64.85
2022-12-31T16:54:44.164Z,64.98
2022-12-31T16:57:24.546Z,64.63
2022-12-31T17:00:02.223Z,64.96
2022-12-31T17:02:40.619Z,64.94
2022-12-31T17:05:28.756Z,64.82
2022-12-31T17:07:57.382Z,65.15
2022-12-31T17:10:36.422Z,65.31
2022-12-31T17:13:34.009Z,65.26
2022-12-31T17:16:02.259Z,65.19
2022-12-31T17:18:38.553Z,65.86
2022-12-31T17:21:10.813Z,66.05
2022-12-31T17:23:39.867Z,65.91
2022-12-31T17:26:34.736Z,66.33
2022-12-31T17:29:05.182Z,66.32
2022-12-31T17:31:39.436Z,66.86
2022-12-31T17:34:22.805Z,66.56
2022-12-31T17:37:27.580Z,66.81
2022-12-31T17:42:48.773Z,66.55
2022-12-31T17:45:22.004Z,66.33
2022-12-31T17:47:53.664Z,66.34
2022-12-31T17:50:27.902Z,66.39
2022-12-31T17:53:12.493Z,66.78
2022-12-31T17:55:45.526Z,66.75
2022-12-31T17:58:36.445Z,67.07
2022-12-31T18:01:09.258Z,66.95
2022-12-31T18:03:36.642Z,67.52
2022-12-31T18:06:05.444Z,66.94
2022-12-31T18:08:32.857Z,67.00
2022-12-31T18:11:00.158Z,67.62
2022-12-31T18:13:28.293Z,66.88
2022-12-31T18:15:56.112Z,67.74
2022-12-31T18:18:28.523Z,67.57
2022-12-31T18:21:03.361Z,67.48
2022-12-31T18:23:47.978Z,67.21
2022-12-31T18:26:21.099Z,67.35
2022-12-31T18:28:50.259Z,67.59
2022-12-31T18:31:30.859Z,68.26
2022-12-31T18:33:59.661Z,68.49
2022-12-31T18:36:28.513Z,68.07
2022-12-31T18:38:55.950Z,68.05
2022-12-31T18:41:30.031Z,68.08
2022-12-31T18:43:57.380Z,68.06
2022-12-31T18:46:26.914Z,68.40
2022-12-31T18:48:54.193Z,68.17
2022-12-31T18:51:31.265Z,68.42
2022-12-31T18:54:01.737Z,68.31
2022-12-31T18:56:29.201Z,68.55
2022-12-31T18:58:56.734Z,68.84
2022-12-31T19:01:38.505Z,68.06
2022-12-31T19:04:24.978Z,68.27
2022-12-31T19:06:55.446Z,68.25
2022-12-31T19:12:15.006Z,67.82
2022-12-31T19:14:42.436Z,68.06
2022-12-31T19:19:36.376Z,67.97
2022-12-31T19:22:03.701Z,67.59
2022-12-31T19:24:31.015Z,68.16
2022-12-31T19:26:58.347Z,68.68
2022-12-31T19:29:28.425Z,68.75
2022-12-31T19:31:55.722Z,68.87
2022-12-31T19:34:23.082Z,68.77
2022-12-31T19:36:50.418Z,68.46
2022-12-31T19:39:21.279Z,69.06
2022-12-31T19:41:54.747Z,68.70
2022-12-31T19:44:26.125Z,68.65
2022-12-31T19:46:53.486Z,68.54
2022-12-31T19:49:20.795Z,68.52
2022-12-31T19:51:48.175Z,68.75
2022-12-31T19:54:15.474Z,69.08
2022-12-31T19:56:42.818Z,68.90
2022-12-31T19:59:11.458Z,68.70
2022-12-31T20:01:39.145Z,68.72
2022-12-31T20:04:06.871Z,69.00
2022-12-31T20:06:34.218Z,68.67
2022-12-31T20:09:03.414Z,68.84
2022-12-31T20:11:30.780Z,68.53
2022-12-31T20:13:58.288Z,68.77
2022-12-31T20:16:27.578Z,68.62
2022-12-31T20:18:55.264Z,69.06
2022-12-31T20:21:29.175Z,68.78
2022-12-31T20:23:56.988Z,68.65
2022-12-31T20:26:25.795Z,68.48
2022-12-31T20:28:53.822Z,68.68
2022-12-31T20:31:28.426Z,68.36
2022-12-31T20:33:56.238Z,68.55
2022-12-31T20:36:24.591Z,68.59
2022-12-31T20:38:51.962Z,68.40
2022-12-31T20:41:22.889Z,68.47
2022-12-31T20:43:50.906Z,69.19
2022-12-31T20:46:25.932Z,68.87
2022-12-31T20:49:01.736Z,69.09
